createdAt,value
2018-06-17T00:00:34.877Z,99.99
2018-06-17T00:01:34.855Z,99.99
2018-06-17T00:02:34.859Z,99.99
2018-06-17T00:03:34.844Z,99.99
2018-06-17T00:04:34.831Z,99.99
2018-06-17T00:05:34.812Z,99.99
2018-06-17T00:06:34.797Z,99.99
2018-06-17T00:07:34.784Z,99.99
2018-06-17T00:08:34.778Z,99.99
2018-06-17T00:09:34.761Z,99.99
2018-06-17T00:10:34.758Z,99.99
2018-06-17T00:11:34.749Z,99.99
2018-06-17T00:12:34.726Z,99.99
2018-06-17T00:13:34.713Z,99.99
2018-06-17T00:14:34.694Z,99.99
2018-06-17T00:15:34.685Z,99.99
2018-06-17T00:16:34.683Z,99.99
2018-06-17T00:17:34.659Z,99.99
2018-06-17T00:18:34.659Z,99.99
2018-06-17T00:19:34.634Z,99.99
2018-06-17T00:20:34.628Z,99.99
2018-06-17T00:21:34.621Z,99.99
2018-06-17T00:22:34.602Z,99.99
2018-06-17T00:23:34.591Z,99.99
2018-06-17T00:24:34.582Z,99.99
2018-06-17T00:25:34.570Z,99.99
2018-06-17T00:26:34.556Z,99.99
2018-06-17T00:27:34.546Z,99.99
2018-06-17T00:28:34.531Z,99.99
2018-06-17T00:29:34.523Z,99.99
2018-06-17T00:30:34.506Z,99.99
2018-06-17T00:31:34.486Z,99.99
2018-06-17T00:32:34.477Z,99.99
2018-06-17T00:33:34.467Z,99.99
2018-06-17T00:34:34.448Z,99.99
2018-06-17T00:35:34.444Z,99.99
2018-06-17T00:36:34.426Z,99.99
2018-06-17T00:37:34.414Z,99.99
2018-06-17T00:38:34.411Z,99.99
2018-06-17T00:39:34.390Z,99.99
2018-06-17T00:40:34.381Z,99.99
2018-06-17T00:41:34.365Z,99.99
2018-06-17T00:42:34.348Z,99.99
2018-06-17T00:43:34.340Z,99.99
2018-06-17T00:44:34.326Z,99.99
2018-06-17T00:45:34.310Z,99.99
2018-06-17T00:46:34.302Z,99.99
2018-06-17T00:47:34.297Z,99.99
2018-06-17T00:48:34.294Z,99.99
2018-06-17T00:49:34.267Z,99.99
2018-06-17T00:50:34.250Z,99.99
2018-06-17T00:51:34.241Z,99.99
2018-06-17T00:52:34.228Z,99.99
2018-06-17T00:53:34.214Z,99.99
2018-06-17T00:54:34.207Z,99.99
2018-06-17T00:55:34.187Z,99.99
2018-06-17T00:56:34.174Z,99.99
2018-06-17T00:57:34.155Z,99.99
2018-06-17T00:58:34.145Z,99.99
2018-06-17T00:59:34.138Z,99.99
2018-06-17T01:00:34.120Z,99.99
2018-06-17T01:01:34.106Z,99.99
2018-06-17T01:02:34.100Z,99.99
2018-06-17T01:03:34.092Z,99.99
2018-06-17T01:04:34.066Z,99.99
2018-06-17T01:05:34.055Z,99.99
2018-06-17T01:06:34.053Z,99.99
2018-06-17T01:07:34.041Z,99.99
2018-06-17T01:08:34.022Z,99.99
2018-06-17T01:09:34.037Z,99.99
2018-06-17T01:10:33.998Z,99.99
2018-06-17T01:11:33.988Z,99.99
2018-06-17T01:12:33.966Z,99.99
2018-06-17T01:13:33.966Z,99.99
2018-06-17T01:14:33.948Z,99.99
2018-06-17T01:15:33.941Z,99.99
2018-06-17T01:16:33.919Z,99.99
2018-06-17T01:17:33.913Z,99.99
2018-06-17T01:18:33.900Z,99.99
2018-06-17T01:19:33.950Z,99.99
2018-06-17T01:20:33.868Z,99.99
2018-06-17T01:21:33.857Z,99.99
2018-06-17T01:22:33.849Z,99.99
2018-06-17T01:23:33.932Z,99.99
2018-06-17T01:24:33.812Z,99.99
2018-06-17T01:25:33.856Z,99.99
2018-06-17T01:26:33.786Z,99.99
2018-06-17T01:27:33.831Z,99.99
2018-06-17T01:28:33.767Z,99.99
2018-06-17T01:29:33.758Z,99.99
2018-06-17T01:30:33.745Z,99.99
2018-06-17T01:31:33.777Z,99.99
2018-06-17T01:32:33.717Z,99.99
2018-06-17T01:33:33.700Z,99.99
2018-06-17T01:34:33.688Z,99.99
2018-06-17T01:35:33.675Z,99.99
2018-06-17T01:36:33.659Z,99.99
2018-06-17T01:37:33.646Z,99.99
2018-06-17T01:38:33.638Z,99.99
2018-06-17T01:39:33.629Z,99.99
2018-06-17T01:40:33.611Z,99.99
2018-06-17T01:41:33.594Z,99.99
2018-06-17T01:42:33.579Z,99.99
2018-06-17T01:43:33.575Z,99.99
2018-06-17T01:44:33.557Z,99.99
2018-06-17T01:45:33.545Z,99.99
2018-06-17T01:46:33.533Z,99.99
2018-06-17T01:47:33.522Z,99.99
2018-06-17T01:48:33.509Z,99.99
2018-06-17T01:49:33.493Z,99.99
2018-06-17T01:50:33.478Z,99.99
2018-06-17T01:51:33.470Z,99.99
2018-06-17T01:52:33.460Z,99.99
2018-06-17T01:53:33.435Z,99.99
2018-06-17T01:54:33.477Z,99.99
2018-06-17T01:55:33.422Z,99.99
2018-06-17T01:56:33.402Z,99.99
2018-06-17T01:57:33.388Z,99.99
2018-06-17T01:58:33.377Z,99.99
2018-06-17T01:59:33.362Z,99.99
2018-06-17T02:00:33.345Z,99.99
2018-06-17T02:01:33.330Z,99.99
2018-06-17T02:02:33.319Z,99.99
2018-06-17T02:03:33.307Z,99.99
2018-06-17T02:04:33.287Z,99.99
2018-06-17T02:05:33.276Z,99.99
2018-06-17T02:06:33.267Z,99.99
2018-06-17T02:07:33.251Z,99.99
2018-06-17T02:08:33.243Z,99.99
2018-06-17T02:09:33.219Z,99.99
2018-06-17T02:10:33.207Z,99.99
2018-06-17T02:11:33.197Z,99.99
2018-06-17T02:12:33.189Z,99.99
2018-06-17T02:13:33.171Z,99.99
2018-06-17T02:14:33.158Z,99.99
2018-06-17T02:15:33.142Z,99.99
2018-06-17T02:16:33.126Z,99.34
2018-06-17T02:17:33.117Z,99.34
2018-06-17T02:18:33.114Z,99.99
2018-06-17T02:19:33.100Z,99.87
2018-06-17T02:20:33.075Z,99.99
2018-06-17T02:21:33.063Z,99.99
2018-06-17T02:22:33.051Z,99.96
2018-06-17T02:23:33.034Z,99.99
2018-06-17T02:24:33.018Z,99.99
2018-06-17T02:25:33.011Z,99.99
2018-06-17T02:26:33.002Z,99.58
2018-06-17T02:27:32.991Z,99.68
2018-06-17T02:28:32.969Z,99.96
2018-06-17T02:29:32.947Z,99.87
2018-06-17T02:30:32.939Z,99.99
2018-06-17T02:31:32.929Z,99.99
2018-06-17T02:32:32.905Z,99.99
2018-06-17T02:33:32.903Z,99.99
2018-06-17T02:34:32.877Z,99.99
2018-06-17T02:35:32.868Z,99.99
2018-06-17T02:36:32.854Z,99.99
2018-06-17T02:37:32.846Z,99.99
2018-06-17T02:38:32.825Z,99.99
2018-06-17T02:39:32.810Z,99.99
2018-06-17T02:40:32.802Z,99.99
2018-06-17T02:41:32.787Z,99.99
2018-06-17T02:42:32.772Z,99.99
2018-06-17T02:43:32.755Z,99.99
2018-06-17T02:44:32.737Z,99.99
2018-06-17T02:45:32.727Z,99.99
2018-06-17T02:46:32.721Z,99.99
2018-06-17T02:47:32.708Z,99.99
2018-06-17T02:48:32.690Z,99.99
2018-06-17T02:49:32.671Z,99.99
2018-06-17T02:50:32.762Z,99.99
2018-06-17T02:51:32.639Z,99.99
2018-06-17T02:52:32.664Z,99.99
2018-06-17T02:53:32.620Z,99.99
2018-06-17T02:54:32.752Z,99.99
2018-06-17T02:55:32.592Z,99.99
2018-06-17T02:56:32.569Z,99.99
2018-06-17T02:57:32.564Z,99.99
2018-06-17T02:58:32.646Z,99.99
2018-06-17T02:59:32.534Z,99.99
2018-06-17T03:00:32.562Z,99.99
2018-06-17T03:01:32.512Z,99.99
2018-06-17T03:02:32.490Z,99.99
2018-06-17T03:03:32.472Z,99.99
2018-06-17T03:04:32.461Z,99.99
2018-06-17T03:05:32.454Z,99.99
2018-06-17T03:06:32.436Z,99.99
2018-06-17T03:07:32.426Z,99.99
2018-06-17T03:08:32.405Z,99.99
2018-06-17T03:09:32.393Z,99.99
2018-06-17T03:10:32.380Z,99.99
2018-06-17T03:11:32.356Z,99.99
2018-06-17T03:12:32.353Z,99.99
2018-06-17T03:13:32.335Z,99.99
2018-06-17T03:14:32.322Z,99.99
2018-06-17T03:15:32.302Z,99.99
2018-06-17T03:16:32.314Z,99.99
2018-06-17T03:17:32.269Z,99.99
2018-06-17T03:18:32.267Z,99.99
2018-06-17T03:19:32.252Z,99.99
2018-06-17T03:20:32.228Z,99.99
2018-06-17T03:21:32.224Z,99.99
2018-06-17T03:22:32.199Z,99.99
2018-06-17T03:23:32.187Z,99.99
2018-06-17T03:24:32.180Z,99.99
2018-06-17T03:25:32.164Z,99.99
2018-06-17T03:26:32.145Z,99.99
2018-06-17T03:27:32.132Z,99.99
2018-06-17T03:28:32.129Z,99.99
2018-06-17T03:29:32.111Z,99.99
2018-06-17T03:30:32.095Z,99.99
2018-06-17T03:31:32.082Z,99.99
2018-06-17T03:32:32.066Z,99.99
2018-06-17T03:33:32.052Z,99.99
2018-06-17T03:34:32.037Z,99.99
2018-06-17T03:35:32.024Z,99.99
2018-06-17T03:36:32.012Z,99.87
2018-06-17T03:37:31.998Z,99.58
2018-06-17T03:38:31.982Z,99.39
2018-06-17T03:39:31.967Z,99.99
2018-06-17T03:40:31.947Z,99.72
2018-06-17T03:41:31.931Z,99.72
2018-06-17T03:42:31.928Z,99.87
2018-06-17T03:43:31.910Z,99.34
2018-06-17T03:44:31.896Z,99.99
2018-06-17T03:45:31.888Z,99.82
2018-06-17T03:46:31.871Z,99.39
2018-06-17T03:47:31.858Z,99.72
2018-06-17T03:48:31.842Z,98.76
2018-06-17T03:49:31.826Z,99.39
2018-06-17T03:50:31.814Z,98.81
2018-06-17T03:51:31.798Z,98.33
2018-06-17T03:52:31.778Z,98.19
2018-06-17T03:53:31.773Z,98.38
2018-06-17T03:54:31.761Z,98.67
2018-06-17T03:55:31.747Z,98.76
2018-06-17T03:56:31.721Z,98.05
2018-06-17T03:57:31.715Z,98.14
2018-06-17T03:58:31.699Z,98.52
2018-06-17T03:59:31.692Z,98.33
2018-06-17T04:00:31.674Z,97.56
2018-06-17T04:01:31.659Z,97.66
2018-06-17T04:02:31.648Z,97.56
2018-06-17T04:03:31.639Z,97.09
2018-06-17T04:04:31.619Z,96.80
2018-06-17T04:05:31.609Z,96.80
2018-06-17T04:06:31.593Z,96.42
2018-06-17T04:07:31.582Z,96.13
2018-06-17T04:08:31.561Z,96.61
2018-06-17T04:09:31.543Z,95.94
2018-06-17T04:10:31.540Z,95.94
2018-06-17T04:11:31.517Z,96.51
2018-06-17T04:12:31.507Z,95.94
2018-06-17T04:13:31.531Z,95.79
2018-06-17T04:14:31.481Z,95.98
2018-06-17T04:15:31.471Z,94.93
2018-06-17T04:16:31.452Z,95.98
2018-06-17T04:17:31.441Z,95.07
2018-06-17T04:18:31.429Z,95.46
2018-06-17T04:19:31.407Z,95.65
2018-06-17T04:20:31.391Z,95.75
2018-06-17T04:21:31.384Z,95.70
2018-06-17T04:22:31.372Z,95.65
2018-06-17T04:23:31.361Z,94.74
2018-06-17T04:24:31.342Z,93.68
2018-06-17T04:25:31.363Z,94.84
2018-06-17T04:26:31.314Z,94.45
2018-06-17T04:27:31.295Z,94.64
2018-06-17T04:28:31.290Z,94.45
2018-06-17T04:29:31.282Z,94.26
2018-06-17T04:30:31.258Z,95.51
2018-06-17T04:31:31.245Z,95.79
2018-06-17T04:32:31.239Z,95.41
2018-06-17T04:33:31.270Z,95.89
2018-06-17T04:34:31.203Z,96.27
2018-06-17T04:35:31.295Z,96.51
2018-06-17T04:36:31.180Z,96.42
2018-06-17T04:37:31.216Z,96.85
2018-06-17T04:38:31.151Z,96.75
2018-06-17T04:39:31.139Z,97.09
2018-06-17T04:40:31.126Z,96.85
2018-06-17T04:41:31.107Z,96.94
2018-06-17T04:42:31.097Z,97.14
2018-06-17T04:43:31.087Z,97.33
2018-06-17T04:44:31.071Z,96.94
2018-06-17T04:45:31.107Z,96.47
2018-06-17T04:46:31.045Z,96.47
2018-06-17T04:47:31.033Z,96.37
2018-06-17T04:48:31.068Z,96.51
2018-06-17T04:49:31.010Z,97.14
2018-06-17T04:50:30.991Z,97.47
2018-06-17T04:51:30.982Z,96.99
2018-06-17T04:52:30.963Z,97.66
2018-06-17T04:53:30.955Z,98.05
2018-06-17T04:54:30.928Z,98.05
2018-06-17T04:55:30.917Z,97.33
2018-06-17T04:56:30.905Z,97.52
2018-06-17T04:57:30.891Z,97.23
2018-06-17T04:58:30.881Z,97.14
2018-06-17T04:59:30.871Z,97.38
2018-06-17T05:00:30.853Z,97.76
2018-06-17T05:01:30.843Z,97.90
2018-06-17T05:02:30.817Z,97.33
2018-06-17T05:03:30.810Z,97.52
2018-06-17T05:04:30.798Z,97.61
2018-06-17T05:05:30.785Z,97.42
2018-06-17T05:06:30.763Z,97.14
2018-06-17T05:07:30.760Z,96.85
2018-06-17T05:08:30.737Z,96.75
2018-06-17T05:09:30.728Z,96.75
2018-06-17T05:10:30.720Z,96.94
2018-06-17T05:11:30.710Z,96.66
2018-06-17T05:12:30.686Z,97.14
2018-06-17T05:13:30.667Z,96.75
2018-06-17T05:14:30.658Z,97.14
2018-06-17T05:15:30.703Z,95.41
2018-06-17T05:16:30.632Z,95.12
2018-06-17T05:17:30.623Z,95.70
2018-06-17T05:18:30.660Z,96.18
2018-06-17T05:19:30.587Z,95.12
2018-06-17T05:20:30.578Z,94.93
2018-06-17T05:21:30.569Z,94.74
2018-06-17T05:22:30.551Z,93.73
2018-06-17T05:23:30.544Z,93.82
2018-06-17T05:24:30.523Z,94.02
2018-06-17T05:25:30.507Z,94.45
2018-06-17T05:26:30.494Z,93.82
2018-06-17T05:27:30.478Z,93.92
2018-06-17T05:28:30.462Z,93.92
2018-06-17T05:29:30.467Z,94.12
2018-06-17T05:30:30.443Z,94.79
2018-06-17T05:31:30.430Z,94.49
2018-06-17T05:32:30.424Z,94.88
2018-06-17T05:33:30.395Z,93.54
2018-06-17T05:34:30.392Z,93.92
2018-06-17T05:35:30.373Z,92.58
2018-06-17T05:36:30.361Z,92.68
2018-06-17T05:37:30.351Z,92.48
2018-06-17T05:38:30.333Z,92.58
2018-06-17T05:39:30.317Z,92.58
2018-06-17T05:40:30.305Z,92.77
2018-06-17T05:41:30.292Z,91.91
2018-06-17T05:42:30.279Z,92.63
2018-06-17T05:43:30.266Z,92.24
2018-06-17T05:44:30.253Z,92.63
2018-06-17T05:45:30.242Z,92.91
2018-06-17T05:46:30.221Z,92.63
2018-06-17T05:47:30.279Z,92.33
2018-06-17T05:48:30.203Z,91.28
2018-06-17T05:49:30.192Z,92.05
2018-06-17T05:50:30.171Z,92.82
2018-06-17T05:51:30.156Z,92.82
2018-06-17T05:52:30.148Z,92.72
2018-06-17T05:53:30.132Z,92.33
2018-06-17T05:54:30.123Z,92.91
2018-06-17T05:55:30.106Z,91.96
2018-06-17T05:56:30.094Z,92.05
2018-06-17T05:57:30.073Z,91.66
2018-06-17T05:58:30.066Z,91.76
2018-06-17T05:59:30.051Z,91.38
2018-06-17T06:00:30.042Z,90.70
2018-06-17T06:01:30.029Z,90.08
2018-06-17T06:02:30.015Z,90.46
2018-06-17T06:03:30.002Z,90.08
2018-06-17T06:04:29.993Z,89.40
2018-06-17T06:05:29.979Z,89.22
2018-06-17T06:06:29.957Z,88.73
2018-06-17T06:07:29.948Z,88.73
2018-06-17T06:08:29.942Z,88.35
2018-06-17T06:09:29.922Z,87.29
2018-06-17T06:10:29.919Z,87.68
2018-06-17T06:11:29.902Z,88.54
2018-06-17T06:12:29.885Z,89.50
2018-06-17T06:13:29.875Z,88.49
2018-06-17T06:14:29.861Z,87.43
2018-06-17T06:15:29.852Z,87.82
2018-06-17T06:16:29.830Z,87.24
2018-06-17T06:17:29.823Z,85.66
2018-06-17T06:18:29.804Z,86.85
2018-06-17T06:19:29.794Z,86.09
2018-06-17T06:20:29.779Z,86.38
2018-06-17T06:21:29.782Z,86.57
2018-06-17T06:22:29.762Z,86.47
2018-06-17T06:23:29.749Z,85.13
2018-06-17T06:24:29.736Z,85.03
2018-06-17T06:25:29.728Z,84.80
2018-06-17T06:26:29.708Z,86.05
2018-06-17T06:27:29.701Z,86.62
2018-06-17T06:28:29.689Z,87.01
2018-06-17T06:29:29.672Z,86.52
2018-06-17T06:30:29.657Z,86.33
2018-06-17T06:31:29.647Z,86.43
2018-06-17T06:32:29.631Z,85.47
2018-06-17T06:33:29.625Z,84.94
2018-06-17T06:34:29.612Z,84.70
2018-06-17T06:35:29.596Z,84.45
2018-06-17T06:36:29.593Z,84.07
2018-06-17T06:37:29.571Z,84.51
2018-06-17T06:38:29.567Z,84.55
2018-06-17T06:39:29.552Z,84.89
2018-06-17T06:40:29.542Z,84.74
2018-06-17T06:41:29.528Z,84.94
2018-06-17T06:42:29.510Z,84.45
2018-06-17T06:43:29.513Z,84.26
2018-06-17T06:44:29.492Z,84.26
2018-06-17T06:45:29.539Z,84.36
2018-06-17T06:46:29.472Z,83.59
2018-06-17T06:47:29.450Z,82.63
2018-06-17T06:48:29.438Z,81.19
2018-06-17T06:49:29.437Z,81.38
2018-06-17T06:50:29.418Z,80.51
2018-06-17T06:51:29.519Z,80.42
2018-06-17T06:52:29.393Z,81.32
2018-06-17T06:53:29.376Z,80.90
2018-06-17T06:54:29.366Z,80.32
2018-06-17T06:55:29.463Z,80.27
2018-06-17T06:56:29.348Z,80.07
2018-06-17T06:57:29.392Z,79.88
2018-06-17T06:58:29.322Z,79.21
2018-06-17T06:59:29.412Z,78.63
2018-06-17T07:00:29.293Z,79.25
2018-06-17T07:01:29.281Z,78.77
2018-06-17T07:02:29.272Z,77.13
2018-06-17T07:03:29.309Z,76.94
2018-06-17T07:04:29.239Z,76.14
2018-06-17T07:05:29.288Z,76.84
2018-06-17T07:06:29.229Z,76.36
2018-06-17T07:07:29.212Z,76.17
2018-06-17T07:08:29.204Z,77.23
2018-06-17T07:09:29.191Z,75.79
2018-06-17T07:10:29.176Z,76.65
2018-06-17T07:11:29.166Z,76.65
2018-06-17T07:12:29.146Z,77.38
2018-06-17T07:13:29.147Z,77.23
2018-06-17T07:14:29.128Z,77.48
2018-06-17T07:15:29.122Z,76.81
2018-06-17T07:16:29.108Z,77.29
2018-06-17T07:17:29.102Z,77.71
2018-06-17T07:18:29.077Z,76.56
2018-06-17T07:19:29.071Z,75.69
2018-06-17T07:20:29.063Z,75.54
2018-06-17T07:21:29.050Z,74.76
2018-06-17T07:22:29.049Z,73.61
2018-06-17T07:23:29.036Z,73.22
2018-06-17T07:24:29.017Z,72.17
2018-06-17T07:25:29.010Z,72.17
2018-06-17T07:26:28.997Z,72.55
2018-06-17T07:27:28.982Z,73.42
2018-06-17T07:28:28.972Z,73.42
2018-06-17T07:29:28.957Z,73.61
2018-06-17T07:30:28.951Z,73.13
2018-06-17T07:31:28.937Z,73.13
2018-06-17T07:32:28.931Z,72.45
2018-06-17T07:33:28.921Z,72.11
2018-06-17T07:34:28.896Z,72.36
2018-06-17T07:35:28.896Z,72.07
2018-06-17T07:36:28.881Z,71.69
2018-06-17T07:37:28.875Z,71.30
2018-06-17T07:38:28.862Z,72.36
2018-06-17T07:39:28.862Z,71.59
2018-06-17T07:40:28.839Z,71.01
2018-06-17T07:41:28.820Z,70.62
2018-06-17T07:42:28.817Z,70.47
2018-06-17T07:43:28.807Z,70.34
2018-06-17T07:44:28.801Z,70.28
2018-06-17T07:45:28.789Z,69.60
2018-06-17T07:46:28.775Z,69.70
2018-06-17T07:47:28.770Z,69.79
2018-06-17T07:48:28.754Z,68.74
2018-06-17T07:49:28.815Z,69.15
2018-06-17T07:50:28.751Z,68.58
2018-06-17T07:51:28.731Z,68.54
2018-06-17T07:52:28.708Z,68.68
2018-06-17T07:53:28.702Z,68.48
2018-06-17T07:54:28.695Z,68.29
2018-06-17T07:55:28.680Z,67.33
2018-06-17T07:56:28.664Z,67.90
2018-06-17T07:57:28.664Z,68.96
2018-06-17T07:58:28.648Z,67.90
2018-06-17T07:59:28.638Z,67.13
2018-06-17T08:00:28.628Z,66.65
2018-06-17T08:01:28.617Z,66.42
2018-06-17T08:02:28.612Z,67.13
2018-06-17T08:03:28.596Z,67.33
2018-06-17T08:04:28.586Z,68.38
2018-06-17T08:05:28.593Z,67.90
2018-06-17T08:06:28.567Z,67.13
2018-06-17T08:07:28.559Z,66.88
2018-06-17T08:08:28.552Z,66.59
2018-06-17T08:09:28.539Z,66.01
2018-06-17T08:10:28.532Z,65.72
2018-06-17T08:11:28.522Z,65.88
2018-06-17T08:12:28.532Z,66.39
2018-06-17T08:13:28.497Z,65.81
2018-06-17T08:14:28.489Z,66.11
2018-06-17T08:15:28.492Z,66.01
2018-06-17T08:16:28.476Z,66.01
2018-06-17T08:17:28.472Z,66.97
2018-06-17T08:18:28.510Z,66.30
2018-06-17T08:19:28.436Z,66.97
2018-06-17T08:20:28.441Z,66.69
2018-06-17T08:21:28.419Z,65.72
2018-06-17T08:22:28.412Z,64.98
2018-06-17T08:23:28.403Z,64.40
2018-06-17T08:24:28.405Z,63.24
2018-06-17T08:25:28.433Z,63.57
2018-06-17T08:26:28.368Z,62.41
2018-06-17T08:27:28.358Z,62.48
2018-06-17T08:28:28.356Z,62.96
2018-06-17T08:29:28.345Z,63.44
2018-06-17T08:30:28.409Z,63.54
2018-06-17T08:31:28.319Z,63.12
2018-06-17T08:32:28.307Z,64.25
2018-06-17T08:33:28.297Z,65.85
2018-06-17T08:34:28.293Z,65.75
2018-06-17T08:35:28.313Z,65.69
2018-06-17T08:36:28.272Z,65.50
2018-06-17T08:37:28.256Z,65.78
2018-06-17T08:38:28.252Z,65.98
2018-06-17T08:39:28.239Z,65.59
2018-06-17T08:40:28.236Z,65.88
2018-06-17T08:41:28.218Z,66.27
2018-06-17T08:42:28.217Z,66.81
2018-06-17T08:43:28.215Z,66.71
2018-06-17T08:44:28.238Z,67.39
2018-06-17T08:45:28.301Z,68.03
2018-06-17T08:46:28.182Z,68.41
2018-06-17T08:47:28.169Z,68.41
2018-06-17T08:48:28.150Z,68.41
2018-06-17T08:49:28.151Z,68.70
2018-06-17T08:50:28.130Z,69.70
2018-06-17T08:51:28.119Z,69.70
2018-06-17T08:52:28.108Z,69.31
2018-06-17T08:53:28.102Z,69.95
2018-06-17T08:54:28.090Z,69.67
2018-06-17T08:55:28.234Z,70.09
2018-06-17T08:56:28.073Z,68.51
2018-06-17T08:57:28.063Z,68.06
2018-06-17T08:58:28.044Z,66.42
2018-06-17T08:59:28.098Z,66.24
2018-06-17T09:00:28.031Z,66.14
2018-06-17T09:01:28.067Z,65.94
2018-06-17T09:02:28.003Z,66.33
2018-06-17T09:03:27.991Z,66.14
2018-06-17T09:04:27.984Z,65.75
2018-06-17T09:05:27.964Z,65.94
2018-06-17T09:06:27.983Z,66.04
2018-06-17T09:07:27.952Z,65.78
2018-06-17T09:08:27.936Z,66.17
2018-06-17T09:09:27.939Z,65.56
2018-06-17T09:10:27.916Z,64.63
2018-06-17T09:11:27.913Z,64.34
2018-06-17T09:12:27.946Z,64.63
2018-06-17T09:13:27.880Z,64.15
2018-06-17T09:14:27.882Z,63.50
2018-06-17T09:15:27.868Z,63.21
2018-06-17T09:16:27.868Z,63.21
2018-06-17T09:17:27.843Z,63.21
2018-06-17T09:18:27.829Z,65.01
2018-06-17T09:19:27.819Z,66.42
2018-06-17T09:20:27.809Z,66.14
2018-06-17T09:21:27.802Z,66.91
2018-06-17T09:22:27.787Z,66.94
2018-06-17T09:23:27.780Z,67.03
2018-06-17T09:24:27.775Z,67.03
2018-06-17T09:25:27.765Z,67.33
2018-06-17T09:26:27.744Z,67.39
2018-06-17T09:27:27.740Z,67.39
2018-06-17T09:28:27.737Z,68.06
2018-06-17T09:29:27.717Z,67.87
2018-06-17T09:30:27.704Z,68.29
2018-06-17T09:31:27.696Z,68.10
2018-06-17T09:32:27.684Z,68.26
2018-06-17T09:33:27.666Z,67.97
2018-06-17T09:34:27.657Z,68.16
2018-06-17T09:35:27.651Z,68.35
2018-06-17T09:36:27.683Z,67.87
2018-06-17T09:37:27.626Z,68.41
2018-06-17T09:38:27.619Z,68.51
2018-06-17T09:39:27.606Z,69.12
2018-06-17T09:40:27.609Z,68.64
2018-06-17T09:41:27.587Z,69.12
2018-06-17T09:42:27.577Z,68.38
2018-06-17T09:43:27.565Z,66.94
2018-06-17T09:44:27.591Z,67.33
2018-06-17T09:45:27.550Z,68.00
2018-06-17T09:46:27.530Z,68.13
2018-06-17T09:47:27.529Z,67.16
2018-06-17T09:48:27.517Z,67.36
2018-06-17T09:49:27.504Z,67.46
2018-06-17T09:50:27.499Z,66.97
2018-06-17T09:51:27.482Z,66.20
2018-06-17T09:52:27.469Z,66.69
2018-06-17T09:53:27.465Z,66.49
2018-06-17T09:54:27.447Z,66.46
2018-06-17T09:55:27.431Z,66.69
2018-06-17T09:56:27.432Z,65.53
2018-06-17T09:57:27.427Z,64.56
2018-06-17T09:58:27.413Z,63.28
2018-06-17T09:59:27.399Z,63.76
2018-06-17T10:00:27.390Z,64.15
2018-06-17T10:01:27.385Z,64.43
2018-06-17T10:02:27.358Z,64.59
2018-06-17T10:03:27.358Z,65.56
2018-06-17T10:04:27.347Z,65.66
2018-06-17T10:05:27.364Z,66.04
2018-06-17T10:06:27.322Z,65.94
2018-06-17T10:07:27.316Z,65.69
2018-06-17T10:08:27.296Z,65.46
2018-06-17T10:09:27.285Z,65.85
2018-06-17T10:10:27.286Z,65.94
2018-06-17T10:11:27.267Z,66.24
2018-06-17T10:12:27.253Z,65.88
2018-06-17T10:13:27.246Z,66.42
2018-06-17T10:14:27.238Z,67.10
2018-06-17T10:15:27.235Z,66.65
2018-06-17T10:16:27.211Z,65.88
2018-06-17T10:17:27.208Z,65.14
2018-06-17T10:18:27.194Z,64.86
2018-06-17T10:19:27.186Z,63.02
2018-06-17T10:20:27.191Z,62.93
2018-06-17T10:21:27.159Z,61.77
2018-06-17T10:22:27.157Z,62.35
2018-06-17T10:23:27.133Z,62.22
2018-06-17T10:24:27.136Z,62.22
2018-06-17T10:25:27.116Z,62.22
2018-06-17T10:26:27.105Z,62.90
2018-06-17T10:27:27.099Z,63.18
2018-06-17T10:28:27.084Z,62.41
2018-06-17T10:29:27.110Z,62.80
2018-06-17T10:30:27.071Z,62.93
2018-06-17T10:31:27.062Z,62.35
2018-06-17T10:32:27.045Z,62.35
2018-06-17T10:33:27.041Z,62.63
2018-06-17T10:34:27.029Z,62.83
2018-06-17T10:35:27.064Z,63.02
2018-06-17T10:36:27.007Z,62.83
2018-06-17T10:37:26.994Z,63.12
2018-06-17T10:38:26.988Z,62.83
2018-06-17T10:39:26.997Z,63.21
2018-06-17T10:40:26.968Z,63.28
2018-06-17T10:41:26.981Z,63.57
2018-06-17T10:42:26.943Z,64.05
2018-06-17T10:43:27.057Z,64.05
2018-06-17T10:44:27.002Z,64.53
2018-06-17T10:45:26.997Z,64.53
2018-06-17T10:46:26.958Z,64.59
2018-06-17T10:47:26.889Z,64.82
2018-06-17T10:48:26.879Z,66.07
2018-06-17T10:49:26.924Z,65.78
2018-06-17T10:50:26.874Z,65.91
2018-06-17T10:51:26.901Z,64.76
2018-06-17T10:52:26.833Z,64.28
2018-06-17T10:53:26.831Z,63.41
2018-06-17T10:54:26.818Z,64.21
2018-06-17T10:55:26.806Z,63.24
2018-06-17T10:56:26.797Z,63.15
2018-06-17T10:57:26.783Z,61.99
2018-06-17T10:58:26.777Z,61.99
2018-06-17T10:59:26.771Z,62.09
2018-06-17T11:00:26.751Z,62.45
2018-06-17T11:01:26.745Z,62.83
2018-06-17T11:02:26.730Z,62.83
2018-06-17T11:03:26.723Z,63.21
2018-06-17T11:04:26.706Z,63.12
2018-06-17T11:05:26.746Z,62.73
2018-06-17T11:06:26.687Z,62.63
2018-06-17T11:07:26.677Z,62.93
2018-06-17T11:08:26.660Z,62.54
2018-06-17T11:09:26.683Z,62.54
2018-06-17T11:10:26.647Z,62.93
2018-06-17T11:11:26.642Z,62.63
2018-06-17T11:12:26.632Z,63.31
2018-06-17T11:13:26.623Z,63.12
2018-06-17T11:14:26.612Z,63.02
2018-06-17T11:15:26.600Z,63.31
2018-06-17T11:16:26.588Z,63.41
2018-06-17T11:17:26.591Z,63.31
2018-06-17T11:18:26.569Z,62.93
2018-06-17T11:19:26.563Z,63.70
2018-06-17T11:20:26.545Z,63.21
2018-06-17T11:21:26.533Z,63.12
2018-06-17T11:22:26.531Z,63.50
2018-06-17T11:23:26.518Z,62.93
2018-06-17T11:24:26.503Z,63.21
2018-06-17T11:25:26.493Z,63.31
2018-06-17T11:26:26.482Z,64.18
2018-06-17T11:27:26.470Z,64.56
2018-06-17T11:28:26.464Z,64.28
2018-06-17T11:29:26.450Z,63.41
2018-06-17T11:30:26.444Z,64.08
2018-06-17T11:31:26.433Z,63.54
2018-06-17T11:32:26.424Z,63.31
2018-06-17T11:33:26.409Z,63.31
2018-06-17T11:34:26.402Z,63.70
2018-06-17T11:35:26.389Z,64.18
2018-06-17T11:36:26.375Z,64.11
2018-06-17T11:37:26.367Z,63.24
2018-06-17T11:38:26.361Z,63.24
2018-06-17T11:39:26.356Z,63.15
2018-06-17T11:40:26.335Z,64.37
2018-06-17T11:41:26.334Z,64.08
2018-06-17T11:42:26.319Z,63.50
2018-06-17T11:43:26.300Z,64.08
2018-06-17T11:44:26.300Z,64.28
2018-06-17T11:45:26.290Z,64.86
2018-06-17T11:46:26.274Z,64.66
2018-06-17T11:47:26.268Z,65.11
2018-06-17T11:48:26.251Z,66.07
2018-06-17T11:49:26.251Z,65.33
2018-06-17T11:50:26.242Z,64.08
2018-06-17T11:51:26.284Z,64.53
2018-06-17T11:52:26.218Z,64.43
2018-06-17T11:53:26.204Z,64.05
2018-06-17T11:54:26.194Z,63.79
2018-06-17T11:55:26.188Z,63.89
2018-06-17T11:56:26.173Z,63.95
2018-06-17T11:57:26.162Z,63.47
2018-06-17T11:58:26.149Z,63.09
2018-06-17T11:59:26.136Z,63.28
2018-06-17T12:00:26.133Z,63.09
2018-06-17T12:01:26.125Z,62.93
2018-06-17T12:02:26.111Z,62.73
2018-06-17T12:03:26.096Z,62.73
2018-06-17T12:04:26.136Z,61.87
2018-06-17T12:05:26.105Z,62.06
2018-06-17T12:06:26.068Z,60.52
2018-06-17T12:07:26.062Z,59.94
2018-06-17T12:08:26.052Z,60.42
2018-06-17T12:09:26.039Z,60.64
2018-06-17T12:10:26.033Z,60.16
2018-06-17T12:11:26.014Z,60.16
2018-06-17T12:12:26.008Z,60.10
2018-06-17T12:13:25.998Z,59.97
2018-06-17T12:14:26.038Z,60.55
2018-06-17T12:15:25.985Z,60.52
2018-06-17T12:16:25.969Z,60.83
2018-06-17T12:17:25.952Z,60.35
2018-06-17T12:18:25.952Z,60.93
2018-06-17T12:19:25.943Z,60.28
2018-06-17T12:20:25.921Z,60.35
2018-06-17T12:21:25.917Z,59.78
2018-06-17T12:22:25.915Z,59.55
2018-06-17T12:23:25.903Z,60.03
2018-06-17T12:24:25.885Z,59.55
2018-06-17T12:25:25.909Z,59.48
2018-06-17T12:26:25.872Z,59.68
2018-06-17T12:27:25.857Z,59.00
2018-06-17T12:28:25.854Z,58.62
2018-06-17T12:29:25.838Z,58.62
2018-06-17T12:30:25.827Z,57.59
2018-06-17T12:31:25.823Z,57.59
2018-06-17T12:32:25.806Z,57.78
2018-06-17T12:33:25.819Z,56.94
2018-06-17T12:34:25.795Z,57.52
2018-06-17T12:35:25.803Z,56.16
2018-06-17T12:36:25.771Z,55.59
2018-06-17T12:37:25.766Z,55.33
2018-06-17T12:38:25.751Z,55.62
2018-06-17T12:39:25.740Z,54.75
2018-06-17T12:40:25.742Z,54.19
2018-06-17T12:41:25.820Z,54.77
2018-06-17T12:42:25.713Z,54.68
2018-06-17T12:43:25.706Z,53.39
2018-06-17T12:44:25.691Z,54.36
2018-06-17T12:45:25.738Z,54.62
2018-06-17T12:46:25.674Z,55.20
2018-06-17T12:47:25.707Z,55.66
2018-06-17T12:48:25.653Z,56.33
2018-06-17T12:49:25.648Z,56.24
2018-06-17T12:50:25.662Z,56.30
2018-06-17T12:51:25.630Z,56.91
2018-06-17T12:52:25.617Z,56.72